Jiu Hua San — 9VBK2 — position and weather

sailwx.info

Track history (hours):
 
Tides and Currents Weather Stations Pressure Air Temp Water Temp Dewpoint Dewpoint Depression Visibility Wind Speed Wind Dir Waves Ship Positions

Jiu Hua San

Last reported at 2014-Nov-21 05:22 UTC. Time now 2014-Nov-27 06:44 UTC.
Position N 01°13' E 103°32'.

Length 333 m; draft 11.4 m.

Type: Ship (hazmat cat A). MMSI: 565914000.

Date/timePositionNaut miles runAvg speedWind from/ knotsBaromVisibWave heightAir tempDewpointWater temp
2014-Nov-21 05:22N 01°13' E 103°32'4 2.0
2014-Nov-21 03:29N 01°14' E 103°35'0 0.0
2014-Nov-21 02:05N 01°14' E 103°35'0 0.1
2014-Nov-21 01:33N 01°14' E 103°36'0 0.0
2014-Nov-20 02:29N 01°14' E 103°35'0 0.1
2014-Nov-20 01:16N 01°14' E 103°35'3 3.8
2014-Nov-20 00:28N 01°12' E 103°37'8 8.4
2014-Nov-19 23:31N 01°09' E 103°45'1111.1
2014-Nov-19 22:33N 01°13' E 103°54'1110.8
2014-Nov-19 21:33N 01°16' E 104°05'1211.7
2014-Nov-19 20:33N 01°18' E 104°16'  
2014-Nov-13 08:32N 21°52' E 113°51'8 8.6
2014-Nov-13 07:33N 22°00' E 113°52'7 7.0
2014-Nov-13 06:33N 22°07' E 113°51'9 8.6
2014-Nov-13 05:33N 22°15' E 113°48'9 8.8
2014-Nov-13 04:33N 22°24' E 113°51'7 6.8
2014-Nov-13 03:33N 22°31' E 113°50'1 0.8
2014-Nov-13 02:31N 22°30' E 113°50'0 0.0
2014-Nov-13 01:31N 22°30' E 113°50'0 0.0
2014-Nov-13 00:25N 22°30' E 113°50'0 0.0
2014-Nov-12 23:31N 22°30' E 113°50'0 0.0
2014-Nov-12 22:19N 22°30' E 113°50'0 0.0
2014-Nov-12 21:13N 22°30' E 113°50'0 0.0
2014-Nov-12 20:31N 22°30' E 113°50'0 0.0
2014-Nov-12 19:25N 22°30' E 113°50'0 0.0
2014-Nov-12 18:31N 22°30' E 113°50'0 0.0
2014-Nov-12 17:31N 22°30' E 113°50'0 0.0
2014-Nov-12 16:25N 22°30' E 113°50'0 0.0
2014-Nov-12 15:31N 22°30' E 113°50'0 0.0
2014-Nov-12 14:13N 22°30' E 113°50'0 0.0
2014-Nov-12 13:19N 22°30' E 113°50'0 0.0
2014-Nov-12 11:19N 22°30' E 113°50'0 0.0
2014-Nov-12 10:25N 22°30' E 113°50'0 0.0
2014-Nov-12 09:31N 22°30' E 113°50'0 0.0
2014-Nov-12 08:31N 22°30' E 113°50'0 0.0
2014-Nov-12 07:31N 22°30' E 113°50'0 0.0
2014-Nov-12 06:31N 22°30' E 113°50'0 0.0
2014-Nov-12 05:25N 22°30' E 113°50'0 0.0
2014-Nov-12 04:25N 22°30' E 113°50'0 0.0
2014-Nov-12 03:31N 22°30' E 113°50'0 0.0
2014-Nov-12 02:31N 22°30' E 113°50'0 0.0
2014-Nov-12 01:31N 22°30' E 113°50'0 0.0
2014-Nov-12 00:31N 22°30' E 113°50'0 0.0
2014-Nov-11 23:31N 22°30' E 113°50'0 0.0
2014-Nov-11 22:13N 22°30' E 113°50'0 0.0
2014-Nov-11 21:13N 22°30' E 113°50'0 0.0
2014-Nov-11 20:31N 22°30' E 113°50'0 0.0
2014-Nov-11 19:25N 22°30' E 113°50'0 0.0
2014-Nov-11 18:13N 22°30' E 113°50'0 0.0
2014-Nov-11 17:31N 22°30' E 113°50'0 0.0
2014-Nov-11 16:31N 22°30' E 113°50'0 0.0
2014-Nov-11 15:31N 22°30' E 113°50'0 0.0
2014-Nov-11 14:31N 22°30' E 113°50'0 0.0
2014-Nov-11 13:31N 22°30' E 113°50'0 0.0
2014-Nov-11 12:31N 22°30' E 113°50'0 0.0
2014-Nov-11 11:31N 22°30' E 113°50'0 0.0
2014-Nov-11 10:19N 22°30' E 113°50'0 0.0
2014-Nov-11 09:31N 22°30' E 113°50'0 0.0
2014-Nov-11 08:31N 22°30' E 113°50'0 0.0
2014-Nov-11 07:31N 22°30' E 113°50'0 0.0
2014-Nov-11 06:31N 22°30' E 113°50'0 0.0
2014-Nov-11 05:31N 22°30' E 113°50'  
Track history (hours):
 
Tides and Currents Weather Stations Pressure Air Temp Water Temp Dewpoint Dewpoint Depression Visibility Wind Speed Wind Dir Waves Ship Positions

Jiu Hua San

Last reported at 2014-Nov-21 05:22 UTC. Time now 2014-Nov-27 06:44 UTC.
Position N 01°13' E 103°32'.

Length 333 m; draft 11.4 m.

Type: Ship (hazmat cat A). MMSI: 565914000.

Date/timePositionNaut miles runAvg speedWind from/ knotsBaromVisibWave heightAir tempDewpointWater temp
2014-Nov-21 05:22N 01°13' E 103°32'4 2.0
2014-Nov-21 03:29N 01°14' E 103°35'0 0.0
2014-Nov-21 02:05N 01°14' E 103°35'0 0.1
2014-Nov-21 01:33N 01°14' E 103°36'0 0.0
2014-Nov-20 02:29N 01°14' E 103°35'0 0.1
2014-Nov-20 01:16N 01°14' E 103°35'3 3.8
2014-Nov-20 00:28N 01°12' E 103°37'8 8.4
2014-Nov-19 23:31N 01°09' E 103°45'1111.1
2014-Nov-19 22:33N 01°13' E 103°54'1110.8
2014-Nov-19 21:33N 01°16' E 104°05'1211.7
2014-Nov-19 20:33N 01°18' E 104°16'  
2014-Nov-13 08:32N 21°52' E 113°51'8 8.6
2014-Nov-13 07:33N 22°00' E 113°52'7 7.0
2014-Nov-13 06:33N 22°07' E 113°51'9 8.6
2014-Nov-13 05:33N 22°15' E 113°48'9 8.8
2014-Nov-13 04:33N 22°24' E 113°51'7 6.8
2014-Nov-13 03:33N 22°31' E 113°50'1 0.8
2014-Nov-13 02:31N 22°30' E 113°50'0 0.0
2014-Nov-13 01:31N 22°30' E 113°50'0 0.0
2014-Nov-13 00:25N 22°30' E 113°50'0 0.0
2014-Nov-12 23:31N 22°30' E 113°50'0 0.0
2014-Nov-12 22:19N 22°30' E 113°50'0 0.0
2014-Nov-12 21:13N 22°30' E 113°50'0 0.0
2014-Nov-12 20:31N 22°30' E 113°50'0 0.0
2014-Nov-12 19:25N 22°30' E 113°50'0 0.0
2014-Nov-12 18:31N 22°30' E 113°50'0 0.0
2014-Nov-12 17:31N 22°30' E 113°50'0 0.0
2014-Nov-12 16:25N 22°30' E 113°50'0 0.0
2014-Nov-12 15:31N 22°30' E 113°50'0 0.0
2014-Nov-12 14:13N 22°30' E 113°50'0 0.0
2014-Nov-12 13:19N 22°30' E 113°50'0 0.0
2014-Nov-12 11:19N 22°30' E 113°50'0 0.0
2014-Nov-12 10:25N 22°30' E 113°50'0 0.0
2014-Nov-12 09:31N 22°30' E 113°50'0 0.0
2014-Nov-12 08:31N 22°30' E 113°50'0 0.0
2014-Nov-12 07:31N 22°30' E 113°50'0 0.0
2014-Nov-12 06:31N 22°30' E 113°50'0 0.0
2014-Nov-12 05:25N 22°30' E 113°50'0 0.0
2014-Nov-12 04:25N 22°30' E 113°50'0 0.0
2014-Nov-12 03:31N 22°30' E 113°50'0 0.0
2014-Nov-12 02:31N 22°30' E 113°50'0 0.0
2014-Nov-12 01:31N 22°30' E 113°50'0 0.0
2014-Nov-12 00:31N 22°30' E 113°50'0 0.0
2014-Nov-11 23:31N 22°30' E 113°50'0 0.0
2014-Nov-11 22:13N 22°30' E 113°50'0 0.0
2014-Nov-11 21:13N 22°30' E 113°50'0 0.0
2014-Nov-11 20:31N 22°30' E 113°50'0 0.0
2014-Nov-11 19:25N 22°30' E 113°50'0 0.0
2014-Nov-11 18:13N 22°30' E 113°50'0 0.0
2014-Nov-11 17:31N 22°30' E 113°50'0 0.0
2014-Nov-11 16:31N 22°30' E 113°50'0 0.0
2014-Nov-11 15:31N 22°30' E 113°50'0 0.0
2014-Nov-11 14:31N 22°30' E 113°50'0 0.0
2014-Nov-11 13:31N 22°30' E 113°50'0 0.0
2014-Nov-11 12:31N 22°30' E 113°50'0 0.0
2014-Nov-11 11:31N 22°30' E 113°50'0 0.0
2014-Nov-11 10:19N 22°30' E 113°50'0 0.0
2014-Nov-11 09:31N 22°30' E 113°50'0 0.0
2014-Nov-11 08:31N 22°30' E 113°50'0 0.0
2014-Nov-11 07:31N 22°30' E 113°50'0 0.0
2014-Nov-11 06:31N 22°30' E 113°50'0 0.0
2014-Nov-11 05:31N 22°30' E 113°50'  

Dump ship's entire track history